This is the latest recevied weather packets stored in our database for station/object AJ4FJ-13. If no packets are shown the sender has not sent any weather packets the latest 1 day(s).
| Time | Temp. | Humidity | Pressure | Rain* | Wind** | Luminosity | Snow |
|---|---|---|---|---|---|---|---|
| 1778015149 | 29.44° C | 30% | 1015 hPa | 0 mm | 1.34 m/s, 190° | - | - |
| 1778014543 | 30.56° C | 27% | 1015 hPa | 0 mm | 2.24 m/s, 113° | - | - |
| 1778011203 | 29.44° C | 29% | 1016 hPa | 0 mm | 1.79 m/s, 210° | - | - |
| 1778009682 | 29.44° C | 30% | 1016 hPa | 0 mm | 0 m/s | - | - |
| 1778008170 | 29.44° C | 29% | 1016 hPa | 0 mm | 1.79 m/s, 97° | - | - |
| 1778006692 | 29.44° C | 29% | 1016 hPa | 0 mm | 1.79 m/s, 80° | - | - |
| 1778006655 | 29.44° C | 29% | 1016 hPa | 0 mm | 1.79 m/s, 80° | - | - |
| 1778005738 | 29.44° C | 29% | 1016 hPa | 0 mm | 1.79 m/s, 281° | - | - |
| 1778003308 | 29.44° C | 32% | 1017 hPa | 0 mm | 0 m/s | - | - |
| 1778002701 | 28.89° C | 32% | 1017 hPa | 0 mm | 0 m/s | - | - |
| 1778002096 | 28.89° C | 30% | 1017 hPa | 0 mm | 2.68 m/s, 267° | - | - |
| 1778001186 | 28.89° C | 31% | 1017 hPa | 0 mm | 1.79 m/s, 242° | - | - |
| 1777999972 | 27.78° C | 35% | 1017 hPa | 0 mm | 1.79 m/s, 304° | - | - |
| 1777997839 | 26.67° C | 42% | 1017 hPa | 0 mm | 1.34 m/s, 288° | - | - |
| 1777993281 | 23.33° C | 54% | 1016 hPa | 0 mm | 0 m/s | - | - |
| 1777988144 | 18.33° C | 72% | 1015 hPa | 0 mm | 0 m/s | - | - |
| 1777986033 | 15.56° C | 83% | 1014 hPa | 0 mm | 0 m/s | - | - |
| 1777984526 | 12.78° C | 94% | 1014 hPa | 0 mm | 0 m/s | - | - |
| 1777983622 | 11.67° C | 96% | 1013 hPa | 0 mm | 0 m/s | - | - |
| 1777980651 | 9.44° C | 97% | 1012 hPa | 0 mm | 0 m/s | - | - |
| 1777980608 | 9.44° C | 97% | 1012 hPa | 0 mm | 0 m/s | - | - |
| 1777978870 | 6.67° C | 97% | 1012 hPa | 0 mm | 0 m/s | - | - |
| 1777978800 | 6.67° C | 97% | 1012 hPa | 0 mm | 0 m/s | - | - |
| 1777977594 | 6.67° C | 97% | 1012 hPa | 0 mm | 0 m/s | - | - |
| 1777976991 | 6.67° C | 97% | 1012 hPa | 0 mm | 0 m/s | - | - |
* Rain latest hour (hover to see other rain measurements)
** Current wind speed in m/s (hover to see current wind gust speed)